Time;durP1;ratioP1;P1;durP2;ratioP2;P2;SDS_P1;SDS_P2;PMS_P1;PMS_P2;Temp;Humidity;BMP_temperature;BMP_pressure;BME280_temperature;BME280_humidity;BME280_pressure;Samples;Min_cycle;Max_cycle;Signal;HPM_P1;HPM_P2
2023/07/29 00:02:45;;;;;;;5.15;3.70;;;19.30;99.90;;;;;;5000532;28;20038;-79
2023/07/29 00:05:31;;;;;;;6.00;4.03;;;19.30;99.90;;;;;;5015077;28;20041;-78
2023/07/29 00:08:17;;;;;;;4.80;3.80;;;19.30;99.90;;;;;;5005164;28;20045;-79
2023/07/29 00:11:03;;;;;;;6.22;3.75;;;19.30;99.90;;;;;;4982877;28;20080;-79
2023/07/29 00:13:50;;;;;;;5.57;3.65;;;19.20;99.90;;;;;;5014474;28;20038;-79
2023/07/29 00:16:36;;;;;;;3.92;3.50;;;19.30;99.90;;;;;;5012732;28;20050;-78
2023/07/29 00:19:23;;;;;;;4.45;3.20;;;19.20;99.90;;;;;;5007212;28;20045;-79
2023/07/29 00:22:09;;;;;;;3.60;3.00;;;19.20;99.90;;;;;;5012743;28;20045;-79
2023/07/29 00:24:57;;;;;;;4.47;3.45;;;19.30;99.90;;;;;;5014214;28;20052;-78
2023/07/29 00:27:43;;;;;;;3.67;3.08;;;19.20;99.90;;;;;;4989605;28;20050;-77
2023/07/29 00:30:29;;;;;;;5.13;3.38;;;19.20;99.90;;;;;;4995745;28;20423;-77
2023/07/29 00:33:15;;;;;;;5.35;3.70;;;19.20;99.90;;;;;;5009438;28;20042;-77
2023/07/29 00:36:02;;;;;;;5.07;3.15;;;19.20;99.90;;;;;;5019279;28;20490;-77
2023/07/29 00:38:49;;;;;;;3.40;3.05;;;19.20;99.90;;;;;;4994822;28;20053;-78
2023/07/29 00:41:35;;;;;;;3.90;3.00;;;19.20;99.90;;;;;;5000397;28;20042;-78
2023/07/29 00:44:22;;;;;;;3.20;2.60;;;19.20;99.90;;;;;;5001065;28;20073;-78
2023/07/29 00:47:08;;;;;;;3.40;3.10;;;19.20;99.90;;;;;;5005400;28;20122;-79
2023/07/29 00:49:54;;;;;;;4.60;2.80;;;19.20;99.90;;;;;;4996641;28;20034;-78
2023/07/29 00:52:42;;;;;;;4.00;2.70;;;19.20;99.90;;;;;;5014570;28;20176;-78
2023/07/29 00:55:28;;;;;;;4.83;2.93;;;19.20;99.90;;;;;;5005579;28;20071;-79
2023/07/29 00:58:14;;;;;;;4.55;2.83;;;19.20;99.90;;;;;;5002721;28;20621;-78
2023/07/29 01:01:00;;;;;;;3.38;2.92;;;19.20;99.90;;;;;;5010654;28;20094;-78
2023/07/29 01:03:46;;;;;;;4.40;3.05;;;19.20;99.90;;;;;;4996518;28;20041;-78
2023/07/29 01:06:46;;;;;;;4.63;2.90;;;19.20;99.90;;;;;;4997711;28;20046;-78
2023/07/29 01:09:44;;;;;;;5.60;2.97;;;19.20;99.90;;;;;;5019606;28;20042;-79
2023/07/29 01:12:49;;;;;;;3.95;2.85;;;19.20;99.90;;;;;;5029452;28;20033;-78
2023/07/29 01:15:43;;;;;;;9.48;5.22;;;19.20;99.90;;;;;;5012913;28;20072;-78
2023/07/29 01:18:32;;;;;;;5.07;3.53;;;19.20;99.90;;;;;;5031656;28;20033;-79
2023/07/29 01:21:18;;;;;;;5.18;3.42;;;19.10;99.90;;;;;;5022295;28;20042;-79
2023/07/29 01:24:04;;;;;;;5.13;3.33;;;19.10;99.90;;;;;;5022737;28;20129;-79
2023/07/29 01:26:50;;;;;;;4.75;3.00;;;19.10;99.90;;;;;;5009740;28;20714;-79
2023/07/29 01:29:36;;;;;;;5.65;3.10;;;19.20;99.90;;;;;;5042178;28;20033;-79
2023/07/29 01:32:48;;;;;;;4.28;3.10;;;19.20;99.90;;;;;;5023388;28;20041;-79
2023/07/29 01:35:39;;;;;;;3.78;2.70;;;19.20;99.90;;;;;;5029956;28;20056;-79
2023/07/29 01:38:34;;;;;;;4.15;2.75;;;19.10;99.90;;;;;;5027181;28;20112;-79
2023/07/29 01:41:20;;;;;;;3.65;2.72;;;19.00;99.90;;;;;;5002225;28;20374;-77
2023/07/29 01:44:08;;;;;;;5.00;2.38;;;19.00;99.90;;;;;;5003317;28;20103;-78
2023/07/29 01:46:56;;;;;;;5.00;2.70;;;19.00;99.90;;;;;;5018868;28;20045;-78
2023/07/29 01:49:42;;;;;;;6.70;2.60;;;18.90;99.90;;;;;;5035330;28;20033;-78
2023/07/29 01:52:28;;;;;;;3.47;2.15;;;19.00;99.90;;;;;;5016397;28;20485;-81
2023/07/29 01:55:14;;;;;;;3.33;2.40;;;19.10;99.90;;;;;;5013379;28;20045;-77
2023/07/29 01:58:00;;;;;;;3.20;2.30;;;19.10;99.90;;;;;;5031698;28;20365;-79
2023/07/29 02:00:46;;;;;;;3.65;2.42;;;19.10;99.90;;;;;;5007474;28;20083;-80
2023/07/29 02:03:32;;;;;;;6.07;2.33;;;19.10;99.90;;;;;;5029894;28;20068;-79
2023/07/29 02:06:18;;;;;;;3.00;2.30;;;19.10;99.90;;;;;;5015449;28;20415;-80
2023/07/29 02:09:04;;;;;;;3.65;2.47;;;19.10;99.90;;;;;;5014145;28;20060;-80
2023/07/29 02:11:50;;;;;;;3.75;2.40;;;19.10;99.90;;;;;;5017747;28;20470;-80
2023/07/29 02:14:36;;;;;;;3.53;2.55;;;19.10;99.90;;;;;;5009134;28;20099;-77
2023/07/29 02:17:22;;;;;;;5.03;2.83;;;19.10;99.90;;;;;;4995228;28;20111;-79
2023/07/29 02:20:10;;;;;;;4.20;2.53;;;19.10;99.90;;;;;;5019306;28;20047;-78
2023/07/29 02:22:56;;;;;;;4.55;2.20;;;19.00;99.90;;;;;;5009319;28;20084;-78
2023/07/29 02:25:43;;;;;;;2.70;2.25;;;19.00;99.90;;;;;;5020545;28;20055;-78
2023/07/29 02:28:29;;;;;;;4.20;2.30;;;19.00;99.90;;;;;;5006833;28;20128;-79
2023/07/29 02:31:16;;;;;;;2.47;2.10;;;19.00;99.90;;;;;;5040263;28;20353;-79
2023/07/29 02:34:02;;;;;;;2.88;2.30;;;19.00;99.90;;;;;;5038797;28;20376;-78
2023/07/29 02:36:48;;;;;;;2.50;2.00;;;18.90;99.90;;;;;;5030634;28;20040;-77
2023/07/29 02:39:34;;;;;;;5.88;2.50;;;18.90;99.90;;;;;;5004913;28;20061;-77
2023/07/29 02:42:20;;;;;;;4.68;2.22;;;18.80;99.90;;;;;;5010665;28;20045;-77
2023/07/29 02:45:10;;;;;;;3.20;2.30;;;18.80;99.90;;;;;;4992726;28;20103;-77
2023/07/29 02:47:56;;;;;;;5.63;2.25;;;18.70;99.90;;;;;;5021147;28;20123;-78
2023/07/29 02:50:42;;;;;;;2.80;1.95;;;18.70;99.90;;;;;;5006182;28;20045;-78
2023/07/29 02:53:28;;;;;;;3.45;2.58;;;18.70;99.90;;;;;;5020136;28;20041;-78
2023/07/29 02:56:14;;;;;;;3.05;2.40;;;18.70;99.90;;;;;;5006524;28;20080;-77
2023/07/29 02:59:01;;;;;;;2.90;2.17;;;18.70;99.90;;;;;;5015685;28;20079;-78
2023/07/29 03:01:47;;;;;;;4.23;2.33;;;18.70;99.90;;;;;;5002287;28;20054;-79
2023/07/29 03:04:33;;;;;;;4.28;2.35;;;18.60;99.90;;;;;;5019520;28;20343;-77
2023/07/29 03:07:20;;;;;;;3.60;1.98;;;18.60;99.90;;;;;;4991985;28;20049;-75
2023/07/29 03:10:07;;;;;;;2.75;2.20;;;18.60;99.90;;;;;;5017949;28;20497;-76
2023/07/29 03:12:57;;;;;;;3.17;1.95;;;18.50;99.90;;;;;;4997083;28;20478;-75
2023/07/29 03:15:43;;;;;;;3.92;2.13;;;18.50;99.90;;;;;;4999183;28;20041;-77
2023/07/29 03:18:29;;;;;;;2.95;2.08;;;18.60;99.90;;;;;;5005441;28;20029;-76
2023/07/29 03:21:15;;;;;;;4.53;2.10;;;18.60;99.90;;;;;;5034123;28;20103;-76
2023/07/29 03:24:01;;;;;;;4.38;2.10;;;18.60;99.90;;;;;;5020386;28;20034;-76
2023/07/29 03:26:47;;;;;;;3.92;2.45;;;18.60;99.90;;;;;;5030461;28;20046;-77
2023/07/29 03:29:33;;;;;;;2.78;2.00;;;18.70;99.90;;;;;;4997302;28;20139;-76
2023/07/29 03:32:19;;;;;;;3.67;2.20;;;18.70;99.90;;;;;;5025181;28;20053;-77
2023/07/29 03:35:05;;;;;;;4.93;2.20;;;18.70;99.90;;;;;;5003709;28;20061;-77
2023/07/29 03:37:51;;;;;;;4.78;2.38;;;18.70;99.90;;;;;;5026022;28;20036;-77
2023/07/29 03:40:41;;;;;;;2.88;1.80;;;18.80;99.90;;;;;;5021088;28;20041;-76
2023/07/29 03:43:27;;;;;;;3.83;1.80;;;18.70;99.90;;;;;;5021127;28;20147;-77
2023/07/29 03:46:13;;;;;;;2.72;1.73;;;18.70;99.90;;;;;;5001948;28;20124;-78
2023/07/29 03:48:59;;;;;;;4.93;2.28;;;18.70;99.90;;;;;;5005254;28;20044;-77
2023/07/29 03:51:45;;;;;;;4.80;1.63;;;18.70;99.90;;;;;;5027771;28;20091;-77
2023/07/29 03:54:31;;;;;;;2.75;1.85;;;18.60;99.90;;;;;;5019746;28;20072;-77
2023/07/29 03:57:17;;;;;;;4.47;1.92;;;18.60;99.90;;;;;;5024259;28;20041;-77
2023/07/29 04:00:04;;;;;;;6.65;1.67;;;18.70;99.90;;;;;;5005194;28;20041;-74
2023/07/29 04:02:50;;;;;;;3.03;1.55;;;18.70;99.90;;;;;;4997072;28;20116;-75
2023/07/29 04:05:36;;;;;;;2.90;1.73;;;18.60;99.90;;;;;;5027739;28;20171;-74
2023/07/29 04:08:24;;;;;;;3.75;1.73;;;18.70;99.90;;;;;;5014775;28;20041;-75
2023/07/29 04:11:10;;;;;;;2.30;1.73;;;18.70;99.90;;;;;;5009126;28;20057;-75
2023/07/29 04:13:56;;;;;;;4.13;1.77;;;18.70;99.90;;;;;;5008460;28;20665;-75
2023/07/29 04:16:42;;;;;;;4.05;1.60;;;18.70;99.90;;;;;;4992118;28;20112;-75
2023/07/29 04:19:27;;;;;;;3.28;1.60;;;18.70;99.90;;;;;;4982086;28;20054;-74
2023/07/29 04:22:15;;;;;;;3.55;1.60;;;18.70;99.90;;;;;;4989989;28;20042;-75
2023/07/29 04:25:01;;;;;;;2.20;1.50;;;18.70;99.90;;;;;;4994250;28;20382;-74
2023/07/29 04:27:47;;;;;;;6.63;1.75;;;18.70;99.90;;;;;;5008140;28;20103;-75
2023/07/29 04:30:33;;;;;;;2.22;1.67;;;18.70;99.90;;;;;;4999908;28;20120;-75
2023/07/29 04:33:19;;;;;;;4.07;1.67;;;18.70;99.90;;;;;;4974634;28;20034;-75
2023/07/29 04:36:05;;;;;;;3.20;1.85;;;18.70;99.90;;;;;;4997546;28;20042;-75
2023/07/29 04:38:51;;;;;;;3.08;1.60;;;18.70;99.90;;;;;;4993243;28;20053;-74
2023/07/29 04:41:37;;;;;;;2.38;1.80;;;18.80;99.90;;;;;;4994640;28;20439;-74
2023/07/29 04:44:23;;;;;;;2.65;1.60;;;18.80;99.90;;;;;;4994359;28;20046;-74
2023/07/29 04:47:09;;;;;;;2.65;1.70;;;18.80;99.90;;;;;;4982559;28;20533;-75
2023/07/29 04:49:55;;;;;;;2.95;1.90;;;18.80;99.90;;;;;;4982035;28;20046;-74
2023/07/29 04:52:41;;;;;;;4.28;1.80;;;18.80;99.90;;;;;;4991418;28;20046;-74
2023/07/29 04:55:27;;;;;;;2.88;1.77;;;18.90;99.90;;;;;;4992075;28;20042;-74
2023/07/29 04:58:13;;;;;;;3.35;1.80;;;18.90;99.90;;;;;;5007530;28;20049;-74
2023/07/29 05:00:59;;;;;;;2.97;1.65;;;18.90;99.90;;;;;;4986203;28;20047;-74
2023/07/29 05:03:45;;;;;;;1.80;1.50;;;18.90;99.90;;;;;;4981617;28;20042;-73
2023/07/29 05:06:31;;;;;;;2.88;1.60;;;19.00;99.90;;;;;;5002520;28;20061;-75
2023/07/29 05:09:18;;;;;;;3.33;1.75;;;19.00;99.90;;;;;;4995869;28;20069;-75
2023/07/29 05:12:05;;;;;;;3.03;1.52;;;19.00;99.90;;;;;;5023763;28;20041;-74
2023/07/29 05:14:51;;;;;;;1.95;1.50;;;19.10;99.90;;;;;;5019705;28;20051;-74
2023/07/29 05:17:38;;;;;;;2.83;1.88;;;19.10;99.90;;;;;;5023087;28;20045;-74
2023/07/29 05:20:23;;;;;;;6.53;2.15;;;19.10;99.90;;;;;;5040356;28;20673;-74
2023/07/29 05:23:09;;;;;;;2.40;1.67;;;19.10;99.90;;;;;;5040619;28;20037;-73
2023/07/29 05:25:55;;;;;;;3.33;1.85;;;19.20;99.90;;;;;;5037543;28;20052;-75
2023/07/29 05:28:41;;;;;;;4.00;1.77;;;19.20;99.90;;;;;;5039777;28;20365;-76
2023/07/29 05:31:27;;;;;;;3.97;1.67;;;19.20;99.90;;;;;;4998379;28;20041;-76
2023/07/29 05:34:13;;;;;;;3.65;2.05;;;19.20;99.90;;;;;;5011515;28;20064;-76
2023/07/29 05:36:59;;;;;;;3.85;1.80;;;19.20;99.90;;;;;;5037249;28;20036;-75
2023/07/29 05:39:45;;;;;;;2.10;1.60;;;19.20;99.90;;;;;;5041081;28;20042;-75
2023/07/29 05:42:31;;;;;;;2.17;1.50;;;19.20;99.90;;;;;;5027332;28;20092;-75
2023/07/29 05:45:17;;;;;;;3.53;1.88;;;19.20;99.90;;;;;;5000589;28;20038;-76
2023/07/29 05:48:03;;;;;;;2.90;1.80;;;19.30;99.90;;;;;;5016988;28;20441;-76
2023/07/29 05:50:50;;;;;;;4.97;1.77;;;19.30;99.90;;;;;;5037859;28;20037;-76
2023/07/29 05:53:36;;;;;;;3.05;1.80;;;19.40;99.90;;;;;;5014799;28;20045;-75
2023/07/29 05:56:22;;;;;;;2.38;1.70;;;19.40;99.90;;;;;;5028646;28;20041;-75
2023/07/29 05:59:08;;;;;;;3.25;1.92;;;19.40;99.90;;;;;;4997790;28;20037;-75
2023/07/29 06:01:54;;;;;;;3.30;1.50;;;19.40;99.90;;;;;;5039209;28;20107;-75
2023/07/29 06:04:40;;;;;;;3.42;1.70;;;19.40;99.90;;;;;;5021417;28;20087;-75
2023/07/29 06:07:29;;;;;;;3.00;1.80;;;19.40;99.90;;;;;;5017770;28;20492;-75
2023/07/29 06:10:18;;;;;;;2.40;1.70;;;19.50;99.90;;;;;;5021005;28;20057;-75
2023/07/29 06:13:04;;;;;;;2.95;1.50;;;19.40;99.90;;;;;;5013382;28;20045;-76
2023/07/29 06:15:50;;;;;;;3.33;1.77;;;19.40;99.90;;;;;;5038912;28;20062;-74
2023/07/29 06:18:36;;;;;;;2.47;1.52;;;19.50;99.90;;;;;;5034658;28;20040;-75
2023/07/29 06:21:22;;;;;;;1.80;1.55;;;19.50;99.90;;;;;;5038384;28;20425;-74
2023/07/29 06:24:08;;;;;;;5.40;2.00;;;19.50;99.90;;;;;;5017509;28;20044;-74
2023/07/29 06:26:54;;;;;;;2.35;1.90;;;19.50;99.90;;;;;;5038626;28;20641;-74
2023/07/29 06:29:40;;;;;;;3.78;2.17;;;19.40;99.90;;;;;;5039161;28;20187;-75
2023/07/29 06:32:26;;;;;;;4.22;1.52;;;19.40;99.90;;;;;;5019901;28;20033;-76
2023/07/29 06:35:12;;;;;;;3.92;2.25;;;19.40;99.90;;;;;;5034084;28;20064;-77
2023/07/29 06:37:58;;;;;;;5.00;2.00;;;19.40;99.90;;;;;;5034692;28;20129;-77
2023/07/29 06:40:44;;;;;;;6.35;2.08;;;19.40;99.90;;;;;;5023464;28;20037;-76
2023/07/29 06:43:30;;;;;;;6.80;2.38;;;19.40;99.90;;;;;;5001863;28;20042;-79
2023/07/29 06:46:16;;;;;;;5.63;2.38;;;19.40;99.90;;;;;;5042891;28;20036;-80
2023/07/29 06:49:02;;;;;;;4.03;2.10;;;19.40;99.90;;;;;;5039172;28;20143;-80
2023/07/29 06:51:48;;;;;;;3.38;2.20;;;19.40;99.90;;;;;;5034208;28;20191;-80
2023/07/29 06:54:36;;;;;;;4.55;2.50;;;19.40;99.90;;;;;;5035561;28;20102;-80
2023/07/29 06:57:22;;;;;;;5.90;2.50;;;19.40;99.90;;;;;;5040317;28;20033;-82
2023/07/29 07:00:09;;;;;;;5.82;2.33;;;19.40;99.90;;;;;;5018292;28;20064;-82
2023/07/29 07:02:55;;;;;;;16.73;2.83;;;19.40;99.90;;;;;;5004961;28;20161;-82
2023/07/29 07:05:41;;;;;;;6.78;2.75;;;19.40;99.90;;;;;;5011864;28;20477;-80
2023/07/29 07:08:27;;;;;;;4.25;2.28;;;19.40;99.90;;;;;;5005377;28;20038;-80
2023/07/29 07:11:13;;;;;;;4.03;2.50;;;19.40;99.90;;;;;;5003700;28;20058;-79
2023/07/29 07:13:59;;;;;;;4.53;2.40;;;19.40;99.90;;;;;;4992660;28;22291;-80
2023/07/29 07:16:45;;;;;;;4.85;2.30;;;19.40;99.90;;;;;;5009242;28;20045;-79
2023/07/29 07:19:31;;;;;;;5.85;2.45;;;19.40;99.90;;;;;;5021849;28;20132;-81
2023/07/29 07:22:18;;;;;;;3.55;2.53;;;19.30;99.90;;;;;;5023267;28;20040;-81
2023/07/29 07:25:05;;;;;;;5.97;2.57;;;19.40;99.90;;;;;;5023464;28;20037;-81
2023/07/29 07:27:51;;;;;;;5.50;2.35;;;19.40;99.90;;;;;;5041971;28;20143;-81
2023/07/29 07:30:43;;;;;;;5.13;2.30;;;19.40;99.90;;;;;;5042315;28;20055;-81
2023/07/29 07:33:29;;;;;;;3.95;2.20;;;19.40;99.90;;;;;;5025559;28;20068;-81
2023/07/29 07:36:15;;;;;;;3.13;1.83;;;19.40;99.90;;;;;;5021977;28;20046;-81
2023/07/29 07:39:01;;;;;;;3.67;2.10;;;19.40;99.90;;;;;;5010886;28;20128;-81
2023/07/29 07:41:47;;;;;;;5.05;2.00;;;19.30;99.90;;;;;;5041239;28;20466;-81
2023/07/29 07:44:33;;;;;;;5.05;2.10;;;19.30;99.90;;;;;;5043009;28;20108;-80
2023/07/29 07:47:19;;;;;;;3.30;1.92;;;19.30;99.90;;;;;;5027400;28;20041;-79
2023/07/29 07:50:05;;;;;;;3.25;2.00;;;19.30;99.90;;;;;;5040253;28;20477;-79
2023/07/29 07:52:51;;;;;;;3.20;1.90;;;19.40;99.90;;;;;;5033103;28;20351;-78
2023/07/29 07:55:37;;;;;;;4.28;1.90;;;19.30;99.90;;;;;;5025952;28;20033;-79
2023/07/29 07:58:24;;;;;;;4.20;1.80;;;19.40;99.90;;;;;;5027848;28;20064;-80
2023/07/29 08:01:11;;;;;;;5.47;2.10;;;19.40;99.90;;;;;;5028327;28;20052;-80
2023/07/29 08:03:57;;;;;;;2.60;1.75;;;19.40;99.90;;;;;;4995477;28;20057;-79
2023/07/29 08:06:43;;;;;;;4.03;1.85;;;19.40;99.90;;;;;;5008191;28;20042;-79
2023/07/29 08:09:29;;;;;;;2.67;1.70;;;19.50;99.90;;;;;;5024261;28;20041;-80
2023/07/29 08:12:15;;;;;;;4.32;1.83;;;19.50;99.90;;;;;;5056876;28;20099;-80
2023/07/29 08:15:01;;;;;;;3.45;1.70;;;19.50;99.90;;;;;;5046621;28;20037;-80
2023/07/29 08:17:47;;;;;;;3.08;1.65;;;19.50;99.90;;;;;;5029142;28;20532;-79
2023/07/29 08:20:33;;;;;;;2.63;1.48;;;19.60;99.90;;;;;;4992423;28;20038;-81
2023/07/29 08:23:19;;;;;;;3.60;1.80;;;19.70;99.90;;;;;;5032256;28;20045;-80
2023/07/29 08:26:05;;;;;;;2.55;1.38;;;19.80;99.90;;;;;;5023702;28;20041;-82
2023/07/29 08:28:51;;;;;;;2.83;1.60;;;19.80;99.90;;;;;;5024285;28;20041;-82
2023/07/29 08:31:37;;;;;;;1.77;1.27;;;19.90;99.90;;;;;;5007141;28;20080;-80
2023/07/29 08:34:23;;;;;;;2.15;1.20;;;19.90;99.90;;;;;;5014198;28;20067;-80
2023/07/29 08:37:09;;;;;;;2.30;1.10;;;19.90;99.90;;;;;;5009340;28;20041;-81
2023/07/29 08:39:55;;;;;;;2.08;1.30;;;19.90;99.90;;;;;;5021763;28;20202;-81
2023/07/29 08:42:41;;;;;;;1.58;1.00;;;20.00;99.90;;;;;;5039618;28;20068;-80
2023/07/29 08:45:27;;;;;;;3.15;1.38;;;20.00;99.90;;;;;;5014163;28;20045;-80
2023/07/29 08:48:13;;;;;;;1.42;0.90;;;20.10;99.90;;;;;;5013730;28;20041;-80
2023/07/29 08:51:00;;;;;;;1.77;1.20;;;20.10;99.90;;;;;;5019195;28;20041;-80
2023/07/29 08:53:46;;;;;;;5.05;1.50;;;20.00;99.90;;;;;;5019084;28;20048;-80
2023/07/29 08:56:32;;;;;;;4.03;1.42;;;20.10;99.90;;;;;;5023446;28;20099;-79
2023/07/29 08:59:19;;;;;;;4.38;1.58;;;20.10;99.90;;;;;;5016162;28;20142;-80
2023/07/29 09:02:05;;;;;;;6.57;2.53;;;20.20;99.90;;;;;;5017472;28;20049;-74
2023/07/29 09:04:51;;;;;;;8.45;3.40;;;20.10;99.90;;;;;;5012923;28;20041;-76
2023/07/29 09:07:38;;;;;;;6.75;2.65;;;20.10;99.90;;;;;;5012906;28;20063;-75
2023/07/29 09:10:25;;;;;;;3.75;2.00;;;20.10;99.90;;;;;;5012278;28;20045;-75
2023/07/29 09:13:11;;;;;;;7.05;2.65;;;20.10;99.90;;;;;;5011913;28;20124;-75
2023/07/29 09:15:58;;;;;;;5.30;2.50;;;20.20;99.90;;;;;;5008118;28;20046;-75
2023/07/29 09:18:44;;;;;;;5.43;2.28;;;20.20;99.90;;;;;;5011396;28;20042;-75
2023/07/29 09:21:30;;;;;;;5.55;2.50;;;20.00;99.90;;;;;;5010081;28;20091;-74
2023/07/29 09:24:17;;;;;;;4.47;2.33;;;20.00;99.90;;;;;;5032044;28;20049;-75
2023/07/29 09:27:03;;;;;;;4.85;2.63;;;20.00;99.90;;;;;;5016292;28;20044;-74
2023/07/29 09:29:49;;;;;;;5.30;2.17;;;19.90;99.90;;;;;;5027285;28;20033;-74
2023/07/29 09:32:35;;;;;;;5.50;2.10;;;19.80;99.90;;;;;;5003465;28;20048;-75
2023/07/29 09:35:20;;;;;;;5.68;2.47;;;19.90;99.90;;;;;;5010492;28;20053;-75
2023/07/29 09:38:07;;;;;;;2.90;1.98;;;20.00;99.90;;;;;;5027579;28;20037;-77
2023/07/29 09:41:00;;;;;;;2.90;1.70;;;20.00;99.90;;;;;;5022230;28;20410;-77
2023/07/29 09:43:46;;;;;;;6.50;2.05;;;20.10;99.90;;;;;;5027089;28;20092;-77
2023/07/29 09:46:37;;;;;;;3.92;1.60;;;20.20;99.90;;;;;;5040423;28;20106;-76
2023/07/29 09:49:23;;;;;;;5.80;1.83;;;20.30;99.90;;;;;;5018584;28;20129;-77
2023/07/29 09:52:09;;;;;;;2.50;1.40;;;20.30;99.90;;;;;;5021511;28;20747;-76
2023/07/29 09:54:54;;;;;;;2.83;1.65;;;20.30;99.90;;;;;;4988110;28;20042;-76
2023/07/29 09:57:40;;;;;;;2.60;1.50;;;20.30;99.90;;;;;;5021200;28;20131;-76
2023/07/29 10:00:27;;;;;;;3.65;1.52;;;20.30;99.90;;;;;;5019934;28;20047;-76
2023/07/29 10:03:13;;;;;;;2.60;1.55;;;20.30;99.90;;;;;;5007444;28;20041;-75
2023/07/29 10:06:22;;;;;;;3.58;1.70;;;20.30;99.90;;;;;;5020458;28;20033;-76
2023/07/29 10:09:08;;;;;;;3.75;1.45;;;20.30;99.90;;;;;;5009787;28;20034;-76
2023/07/29 10:11:54;;;;;;;1.75;1.40;;;20.30;99.90;;;;;;5022379;28;20045;-76
2023/07/29 10:14:40;;;;;;;1.98;1.30;;;20.40;99.90;;;;;;5014530;28;20117;-76
2023/07/29 10:17:27;;;;;;;3.75;1.40;;;20.50;99.90;;;;;;5000340;28;20048;-76
2023/07/29 10:20:13;;;;;;;2.67;1.55;;;20.60;99.90;;;;;;5033886;28;20038;-76
2023/07/29 10:23:02;;;;;;;3.55;1.30;;;20.70;99.90;;;;;;5032283;28;20048;-76
2023/07/29 10:26:05;;;;;;;2.13;1.40;;;20.80;99.90;;;;;;4995361;28;20045;-76
2023/07/29 10:28:51;;;;;;;3.08;1.30;;;20.90;99.90;;;;;;5019445;28;20033;-76
2023/07/29 10:31:38;;;;;;;2.67;1.48;;;21.10;99.90;;;;;;5006993;28;20041;-76
2023/07/29 10:34:24;;;;;;;4.47;1.65;;;21.20;99.90;;;;;;5005716;28;20026;-76
2023/07/29 10:37:10;;;;;;;2.65;1.80;;;21.40;99.90;;;;;;5018624;28;20045;-75
2023/07/29 10:39:56;;;;;;;2.25;1.73;;;21.50;99.90;;;;;;5024844;28;20049;-76
2023/07/29 10:43:02;;;;;;;5.22;2.05;;;21.50;99.90;;;;;;5038469;28;20044;-77
2023/07/29 10:45:48;;;;;;;2.95;2.00;;;21.50;99.90;;;;;;5038621;28;20037;-77
2023/07/29 10:48:37;;;;;;;4.60;1.75;;;21.40;99.90;;;;;;5028613;28;20041;-77
2023/07/29 10:51:29;;;;;;;2.70;2.15;;;21.40;99.90;;;;;;5040056;28;20037;-77
2023/07/29 10:54:15;;;;;;;3.20;2.05;;;21.20;99.90;;;;;;5001411;28;20038;-77
2023/07/29 10:57:01;;;;;;;2.53;2.00;;;21.20;99.90;;;;;;5014753;28;20046;-77
2023/07/29 10:59:57;;;;;;;2.45;1.95;;;21.30;99.90;;;;;;5014531;28;20040;-77
2023/07/29 11:02:44;;;;;;;2.22;2.03;;;21.30;99.90;;;;;;4999569;28;20072;-77
2023/07/29 11:05:44;;;;;;;3.95;2.25;;;21.50;99.90;;;;;;5006934;28;20370;-76
2023/07/29 11:08:30;;;;;;;4.28;2.70;;;21.60;99.90;;;;;;5038587;28;20765;-75
2023/07/29 11:11:16;;;;;;;3.63;2.90;;;21.70;99.90;;;;;;5027062;28;20729;-76
2023/07/29 11:14:02;;;;;;;3.33;2.72;;;21.80;99.90;;;;;;5038366;28;20036;-76
2023/07/29 11:16:48;;;;;;;3.42;3.00;;;21.80;99.90;;;;;;5006520;28;20452;-76
2023/07/29 11:19:34;;;;;;;4.35;3.17;;;21.80;99.90;;;;;;5003798;28;20656;-77
2023/07/29 11:22:20;;;;;;;4.63;3.55;;;21.70;99.90;;;;;;5006960;28;20099;-76
2023/07/29 11:25:11;;;;;;;4.97;3.58;;;21.80;99.90;;;;;;5017354;28;20659;-76
2023/07/29 11:27:58;;;;;;;4.30;3.90;;;21.70;99.90;;;;;;5018585;28;20062;-76
2023/07/29 11:30:44;;;;;;;5.23;4.33;;;21.50;99.90;;;;;;5034122;28;20187;-76
2023/07/29 11:33:30;;;;;;;5.78;5.03;;;21.50;99.90;;;;;;4986451;28;20064;-77
2023/07/29 11:36:19;;;;;;;5.63;5.03;;;21.50;99.90;;;;;;5013700;28;20064;-77
2023/07/29 11:39:12;;;;;;;7.50;6.25;;;21.50;99.90;;;;;;5014775;28;20041;-76
2023/07/29 11:41:58;;;;;;;8.35;6.03;;;21.30;99.90;;;;;;4997591;28;20069;-76
2023/07/29 11:44:44;;;;;;;6.85;6.07;;;21.20;99.90;;;;;;5004595;28;20377;-75
2023/07/29 11:47:30;;;;;;;6.80;5.82;;;21.30;99.90;;;;;;5018296;28;20466;-77
2023/07/29 11:50:16;;;;;;;6.43;5.75;;;21.40;99.90;;;;;;4999445;28;20727;-77
2023/07/29 11:53:02;;;;;;;8.50;5.82;;;21.70;99.90;;;;;;5005275;28;20041;-76
2023/07/29 11:55:54;;;;;;;6.75;6.15;;;21.90;99.90;;;;;;5018771;28;20057;-76
2023/07/29 11:58:41;;;;;;;7.32;6.40;;;22.00;99.90;;;;;;5018805;28;20045;-76
2023/07/29 12:01:28;;;;;;;7.07;6.47;;;22.10;99.90;;;;;;5019594;28;20037;-76
2023/07/29 12:04:14;;;;;;;6.97;5.55;;;22.30;99.90;;;;;;5019488;28;20041;-76
2023/07/29 12:07:00;;;;;;;6.53;5.93;;;22.40;99.90;;;;;;4999288;28;20045;-76
2023/07/29 12:09:47;;;;;;;6.75;5.40;;;22.50;99.90;;;;;;4985750;28;20637;-75
2023/07/29 12:12:33;;;;;;;7.15;6.03;;;22.70;99.90;;;;;;5003293;28;20092;-74
2023/07/29 12:15:27;;;;;;;8.23;6.03;;;22.60;99.90;;;;;;5011668;28;20089;-75
2023/07/29 12:18:13;;;;;;;6.78;5.38;;;22.80;99.90;;;;;;5035490;28;20045;-74
2023/07/29 12:20:59;;;;;;;6.10;5.50;;;22.80;99.90;;;;;;5024672;28;20044;-75
2023/07/29 12:23:46;;;;;;;6.97;5.25;;;22.60;99.90;;;;;;5017753;28;20734;-75
2023/07/29 12:26:32;;;;;;;6.80;5.35;;;22.50;99.90;;;;;;5006854;28;20139;-77
2023/07/29 12:29:22;;;;;;;7.93;5.53;;;22.40;99.90;;;;;;5004186;28;20067;-74
2023/07/29 12:32:08;;;;;;;6.30;5.70;;;22.40;99.90;;;;;;5019688;28;20037;-75
2023/07/29 12:34:54;;;;;;;6.00;5.00;;;22.50;99.90;;;;;;5031053;28;20091;-75
2023/07/29 12:37:42;;;;;;;6.10;4.88;;;22.70;99.90;;;;;;5031379;28;20069;-75
2023/07/29 12:40:28;;;;;;;5.20;4.30;;;22.80;99.90;;;;;;5016562;28;20041;-75
2023/07/29 12:43:14;;;;;;;5.15;4.28;;;23.00;99.90;;;;;;5024094;28;20473;-75
2023/07/29 12:46:00;;;;;;;5.85;4.63;;;23.00;99.90;;;;;;5014406;28;20052;-75
2023/07/29 12:48:46;;;;;;;4.13;3.72;;;22.90;99.90;;;;;;5031451;28;20094;-75
2023/07/29 12:51:33;;;;;;;3.58;2.70;;;23.30;99.90;;;;;;5042016;28;20396;-75
2023/07/29 12:54:19;;;;;;;2.92;2.50;;;23.30;99.90;;;;;;5022183;28;20079;-75
2023/07/29 12:57:05;;;;;;;2.70;2.22;;;23.30;99.90;;;;;;5038471;28;20045;-75
2023/07/29 12:59:51;;;;;;;3.35;2.38;;;23.50;99.90;;;;;;5020042;28;20080;-75
2023/07/29 13:02:37;;;;;;;3.42;2.10;;;23.60;99.90;;;;;;5022337;28;20049;-75
2023/07/29 13:05:23;;;;;;;3.53;2.30;;;23.70;99.90;;;;;;5032923;28;20072;-75
2023/07/29 13:08:11;;;;;;;2.25;1.85;;;23.90;99.90;;;;;;5026406;28;20051;-75
2023/07/29 13:10:57;;;;;;;;;;;23.70;99.90;;;;;;5013823;28;20050;-74
2023/07/29 13:13:45;;;;;;;3.00;2.00;;;23.70;99.70;;;;;;5026613;28;19916;-74
2023/07/29 13:16:31;;;;;;;2.17;1.42;;;23.60;99.20;;;;;;5002090;28;20041;-75
2023/07/29 13:19:18;;;;;;;3.22;1.50;;;23.70;99.10;;;;;;5011180;28;20041;-74
2023/07/29 13:22:04;;;;;;;2.55;1.35;;;23.90;99.90;;;;;;5035313;28;20056;-74
2023/07/29 13:24:50;;;;;;;4.70;1.50;;;24.30;99.20;;;;;;5014044;28;20065;-74
2023/07/29 13:27:37;;;;;;;2.63;1.27;;;24.30;98.00;;;;;;5025808;28;20509;-74
2023/07/29 13:30:23;;;;;;;2.45;1.17;;;24.20;96.90;;;;;;5025439;28;20042;-74
2023/07/29 13:33:09;;;;;;;2.33;1.10;;;24.40;97.10;;;;;;5008270;28;20295;-75
2023/07/29 13:35:55;;;;;;;2.08;1.30;;;24.10;96.30;;;;;;5040063;28;20398;-74
2023/07/29 13:38:41;;;;;;;2.42;1.10;;;23.90;96.80;;;;;;5043130;28;20526;-75
2023/07/29 13:41:27;;;;;;;3.22;1.30;;;23.70;96.70;;;;;;5040109;28;20139;-74
2023/07/29 13:44:13;;;;;;;1.98;1.10;;;23.80;97.20;;;;;;5017457;28;20064;-75
2023/07/29 13:46:59;;;;;;;1.67;1.10;;;24.00;96.10;;;;;;5023612;28;20381;-74
2023/07/29 13:49:45;;;;;;;1.48;0.95;;;23.90;95.70;;;;;;5038664;28;20041;-75
2023/07/29 13:52:31;;;;;;;1.25;1.02;;;23.90;95.40;;;;;;5022539;28;20786;-74
2023/07/29 13:55:17;;;;;;;2.70;1.10;;;23.70;95.60;;;;;;5025968;28;20144;-74
2023/07/29 13:58:03;;;;;;;2.90;1.30;;;23.60;93.70;;;;;;5020182;28;20422;-76
2023/07/29 14:00:49;;;;;;;1.75;1.08;;;24.00;93.80;;;;;;5013996;28;20124;-74
2023/07/29 14:03:35;;;;;;;2.30;1.10;;;24.30;94.10;;;;;;5027832;28;20036;-75
2023/07/29 14:06:21;;;;;;;1.52;0.90;;;24.60;93.50;;;;;;5005327;28;20439;-75
2023/07/29 14:09:07;;;;;;;2.22;1.20;;;24.60;91.50;;;;;;5025663;28;20079;-75
2023/07/29 14:11:56;;;;;;;2.70;1.00;;;24.50;91.80;;;;;;4999813;28;20046;-75
2023/07/29 14:14:42;;;;;;;1.25;0.85;;;24.80;93.30;;;;;;5020679;28;20038;-75
2023/07/29 14:17:28;;;;;;;3.53;0.98;;;24.90;91.90;;;;;;5003361;28;20583;-75
2023/07/29 14:20:14;;;;;;;1.38;0.82;;;25.00;91.30;;;;;;4986970;28;20045;-75
2023/07/29 14:23:02;;;;;;;2.03;1.02;;;25.00;90.50;;;;;;5007003;28;20102;-75
2023/07/29 14:25:48;;;;;;;1.35;0.93;;;25.40;90.50;;;;;;5039371;28;20145;-75
2023/07/29 14:28:36;;;;;;;1.20;0.98;;;25.30;89.70;;;;;;5039079;28;20112;-75
2023/07/29 14:31:22;;;;;;;2.15;0.93;;;24.90;89.70;;;;;;5026780;28;20041;-75